createdAt,value
2022-10-05T00:00:13.126Z,11.35
2022-10-05T00:03:11.151Z,11.38
2022-10-05T00:06:53.321Z,11.45
2022-10-05T00:13:54.924Z,11.38
2022-10-05T01:14:11.815Z,10.86
2022-10-05T01:59:52.062Z,10.76
2022-10-05T02:03:22.438Z,10.87
2022-10-05T02:07:11.087Z,10.67
2022-10-05T02:18:18.879Z,10.70
2022-10-05T06:42:11.001Z,11.13
2022-10-05T06:47:49.255Z,11.65
2022-10-05T06:50:45.976Z,11.71
2022-10-05T06:53:54.673Z,11.67
2022-10-05T07:03:37.204Z,11.91
2022-10-05T07:06:18.196Z,12.19
2022-10-05T07:09:25.372Z,12.07
2022-10-05T07:12:23.151Z,12.23
2022-10-05T07:15:03.127Z,12.66
2022-10-05T07:18:07.984Z,12.60
2022-10-05T07:20:56.356Z,12.62
2022-10-05T07:23:41.348Z,12.59
2022-10-05T07:26:22.791Z,12.61
2022-10-05T07:29:08.232Z,12.70
2022-10-05T07:31:43.324Z,12.78
2022-10-05T07:34:23.821Z,12.97
2022-10-05T07:37:11.145Z,12.98
2022-10-05T07:40:00.242Z,13.16
2022-10-05T07:42:58.375Z,12.92
2022-10-05T07:45:32.365Z,13.17
2022-10-05T07:48:04.834Z,13.13
2022-10-05T07:50:44.112Z,13.46
2022-10-05T07:53:16.874Z,13.66
2022-10-05T07:56:03.800Z,13.56
2022-10-05T07:58:40.596Z,13.63
2022-10-05T08:01:12.010Z,13.73
2022-10-05T08:03:47.330Z,13.76
2022-10-05T08:06:23.017Z,13.90
2022-10-05T08:08:57.779Z,14.01
2022-10-05T08:11:59.257Z,13.98
2022-10-05T08:14:41.448Z,14.22
2022-10-05T08:17:13.118Z,14.28
2022-10-05T08:19:50.562Z,14.30
2022-10-05T08:22:39.842Z,14.35
2022-10-05T08:25:25.133Z,14.58
2022-10-05T08:28:24.037Z,14.69
2022-10-05T08:31:26.670Z,14.84
2022-10-05T08:36:55.911Z,15.05
2022-10-05T08:39:28.393Z,15.23
2022-10-05T08:42:27.679Z,15.29
2022-10-05T08:45:02.969Z,15.40
2022-10-05T08:51:01.120Z,15.75
2022-10-05T08:53:45.059Z,15.94
2022-10-05T08:56:39.374Z,15.93
2022-10-05T09:03:42.115Z,16.00
2022-10-05T09:06:52.083Z,15.85
2022-10-05T09:10:01.485Z,15.85
2022-10-05T09:12:52.900Z,16.08
2022-10-05T09:15:38.494Z,16.14
2022-10-05T09:18:36.357Z,16.17
2022-10-05T09:21:33.480Z,16.27
2022-10-05T09:24:49.549Z,16.50
2022-10-05T09:27:21.922Z,16.71
2022-10-05T09:30:44.085Z,16.83
2022-10-05T09:33:46.644Z,17.00
2022-10-05T09:40:01.502Z,17.13
2022-10-05T09:42:47.457Z,17.62
2022-10-05T09:45:24.184Z,17.63
2022-10-05T09:48:23.875Z,17.71
2022-10-05T09:51:01.237Z,17.88
2022-10-05T09:53:57.482Z,17.77
2022-10-05T09:56:35.343Z,18.19
2022-10-05T09:59:21.914Z,18.26
2022-10-05T10:05:53.684Z,18.42
2022-10-05T10:08:39.607Z,18.15
2022-10-05T10:11:26.016Z,18.29
2022-10-05T10:15:13.059Z,18.13
2022-10-05T10:21:41.861Z,18.15
2022-10-05T10:27:37.847Z,18.25
2022-10-05T10:30:27.609Z,18.61
2022-10-05T10:33:15.737Z,18.63
2022-10-05T10:35:46.307Z,18.65
2022-10-05T10:38:31.084Z,18.68
2022-10-05T10:41:29.226Z,18.76
2022-10-05T10:47:34.606Z,18.84
2022-10-05T10:50:28.380Z,18.88
2022-10-05T10:53:41.291Z,18.88
2022-10-05T10:56:38.852Z,18.94
2022-10-05T10:59:35.410Z,19.03
2022-10-05T11:02:22.318Z,19.31
2022-10-05T11:04:57.695Z,19.33
2022-10-05T11:07:37.287Z,19.38
2022-10-05T11:10:26.061Z,19.28
2022-10-05T11:13:25.226Z,19.24
2022-10-05T11:15:57.879Z,19.19
2022-10-05T11:18:28.632Z,19.31
2022-10-05T11:21:15.245Z,19.35
2022-10-05T11:23:53.647Z,19.56
2022-10-05T11:26:42.893Z,19.44
2022-10-05T11:32:51.466Z,19.58
2022-10-05T11:35:28.299Z,19.70
2022-10-05T11:38:15.329Z,19.90
2022-10-05T11:41:17.575Z,19.92
2022-10-05T11:43:57.146Z,20.05
2022-10-05T11:46:26.029Z,19.98
2022-10-05T11:49:03.222Z,19.89
2022-10-05T11:51:45.458Z,19.97
2022-10-05T11:54:25.169Z,20.12
2022-10-05T11:59:49.233Z,19.89
2022-10-05T12:02:31.330Z,20.14
2022-10-05T12:05:01.374Z,20.38
2022-10-05T12:07:35.449Z,20.38
2022-10-05T12:10:18.124Z,20.66
2022-10-05T12:12:51.149Z,20.76
2022-10-05T12:15:25.089Z,20.69
2022-10-05T12:18:04.733Z,20.76
2022-10-05T12:20:42.530Z,20.82
2022-10-05T12:23:23.770Z,20.87
2022-10-05T12:25:55.140Z,20.88
2022-10-05T12:28:31.452Z,21.01
2022-10-05T12:31:04.605Z,20.93
2022-10-05T12:33:34.332Z,20.62
2022-10-05T12:36:12.115Z,20.77
2022-10-05T12:38:47.960Z,20.98
2022-10-05T12:41:19.639Z,20.99
2022-10-05T12:43:51.000Z,21.05
2022-10-05T12:46:28.225Z,21.13
2022-10-05T12:49:35.286Z,21.09
2022-10-05T12:52:05.730Z,21.20
2022-10-05T12:54:43.442Z,21.19
2022-10-05T12:57:21.850Z,21.39
2022-10-05T13:03:08.613Z,21.88
2022-10-05T13:05:41.038Z,21.88
2022-10-05T13:08:21.560Z,21.44
2022-10-05T13:13:35.927Z,21.51
2022-10-05T13:16:07.414Z,21.50
2022-10-05T13:18:41.899Z,21.53
2022-10-05T13:21:19.474Z,21.63
2022-10-05T13:23:57.132Z,21.48
2022-10-05T13:26:29.474Z,21.58
2022-10-05T13:29:01.686Z,21.63
2022-10-05T13:31:48.442Z,21.61
2022-10-05T13:34:27.417Z,21.76
2022-10-05T13:36:59.966Z,21.43
2022-10-05T13:39:36.877Z,21.59
2022-10-05T13:42:13.811Z,21.68
2022-10-05T13:44:43.904Z,21.46
2022-10-05T13:47:16.763Z,21.38
2022-10-05T13:49:55.789Z,21.27
2022-10-05T13:52:36.882Z,21.23
2022-10-05T13:55:08.260Z,21.16
2022-10-05T13:57:45.258Z,21.25
2022-10-05T14:00:25.607Z,21.15
2022-10-05T14:03:03.509Z,21.18
2022-10-05T14:05:33.192Z,21.24
2022-10-05T14:08:13.637Z,21.08
2022-10-05T14:10:46.880Z,21.08
2022-10-05T14:13:28.184Z,20.87
2022-10-05T14:15:57.180Z,21.12
2022-10-05T14:18:28.786Z,21.00
2022-10-05T14:21:05.478Z,21.05
2022-10-05T14:23:41.510Z,20.97
2022-10-05T14:26:18.106Z,21.03
2022-10-05T14:28:57.647Z,21.06
2022-10-05T14:31:30.574Z,20.92
2022-10-05T14:34:27.274Z,21.07
2022-10-05T14:37:04.837Z,20.99
2022-10-05T14:39:41.544Z,20.99
2022-10-05T14:42:14.882Z,21.03
2022-10-05T14:44:47.751Z,20.92
2022-10-05T14:47:28.083Z,20.65
2022-10-05T14:50:14.011Z,20.79
2022-10-05T14:52:53.556Z,20.79
2022-10-05T14:55:35.538Z,20.59
2022-10-05T14:58:21.197Z,20.60
2022-10-05T15:00:50.613Z,20.51
2022-10-05T15:03:26.487Z,20.52
2022-10-05T15:06:02.022Z,20.39
2022-10-05T15:08:49.472Z,20.45
2022-10-05T15:11:19.101Z,20.37
2022-10-05T15:13:49.482Z,20.17
2022-10-05T15:16:19.934Z,20.13
2022-10-05T15:18:50.867Z,20.14
2022-10-05T15:21:31.412Z,19.95
2022-10-05T15:24:12.080Z,19.93
2022-10-05T15:26:45.002Z,19.74
2022-10-05T15:29:19.056Z,19.73
2022-10-05T15:32:01.687Z,19.66
2022-10-05T15:34:36.484Z,19.53
2022-10-05T15:37:12.400Z,19.26
2022-10-05T15:39:44.836Z,19.29
2022-10-05T15:42:21.372Z,19.25
2022-10-05T15:44:54.082Z,19.21
2022-10-05T15:47:23.895Z,19.05
2022-10-05T15:49:57.473Z,19.05
2022-10-05T15:52:35.747Z,18.91
2022-10-05T15:55:11.194Z,18.65
2022-10-05T15:57:40.775Z,18.81
2022-10-05T16:00:10.919Z,18.69
2022-10-05T16:02:44.255Z,18.62
2022-10-05T16:05:43.875Z,18.62
2022-10-05T16:08:33.538Z,18.57
2022-10-05T16:11:03.872Z,18.37
2022-10-05T16:13:38.478Z,18.27
2022-10-05T16:16:23.574Z,18.29
2022-10-05T16:18:55.068Z,18.26
2022-10-05T16:33:00.606Z,17.74
2022-10-05T16:39:37.702Z,17.56
2022-10-05T16:46:27.691Z,17.37
2022-10-05T16:53:49.016Z,17.28
2022-10-05T17:01:01.981Z,17.18
2022-10-05T17:04:24.085Z,17.10
2022-10-05T17:11:58.532Z,16.92
2022-10-05T17:20:00.124Z,16.70
2022-10-05T17:38:41.171Z,16.38
2022-10-05T17:42:05.158Z,16.20
2022-10-05T17:45:26.655Z,16.26
2022-10-05T17:55:32.501Z,16.04
2022-10-05T18:06:09.029Z,16.04
2022-10-05T18:13:33.046Z,15.85
2022-10-05T18:26:37.798Z,15.75
2022-10-05T18:29:40.938Z,15.62
2022-10-05T19:57:04.853Z,15.86
2022-10-05T20:06:52.832Z,15.85
2022-10-05T20:19:50.814Z,15.74
2022-10-05T20:22:32.542Z,15.87
2022-10-05T20:39:15.898Z,15.75
2022-10-05T20:48:38.658Z,15.56
